sensor_id;sensor_type;location;lat;lon;timestamp;P1;durP1;ratioP1;P2;durP2;ratioP2
2538;SDS011;1280;49.760;9.664;2023-04-06T00:01:46;19.95;;;13.23;;
2538;SDS011;1280;49.760;9.664;2023-04-06T00:04:17;28.10;;;15.95;;
2538;SDS011;1280;49.760;9.664;2023-04-06T00:06:50;31.35;;;16.40;;
2538;SDS011;1280;49.760;9.664;2023-04-06T00:09:27;28.98;;;16.63;;
2538;SDS011;1280;49.760;9.664;2023-04-06T00:12:07;25.58;;;14.98;;
2538;SDS011;1280;49.760;9.664;2023-04-06T00:14:39;26.40;;;16.45;;
2538;SDS011;1280;49.760;9.664;2023-04-06T00:17:30;26.17;;;16.40;;
2538;SDS011;1280;49.760;9.664;2023-04-06T00:20:09;26.15;;;14.25;;
2538;SDS011;1280;49.760;9.664;2023-04-06T00:22:50;18.15;;;12.35;;
2538;SDS011;1280;49.760;9.664;2023-04-06T00:25:27;22.25;;;12.85;;
2538;SDS011;1280;49.760;9.664;2023-04-06T00:28:04;25.27;;;13.15;;
2538;SDS011;1280;49.760;9.664;2023-04-06T00:30:45;23.70;;;13.35;;
2538;SDS011;1280;49.760;9.664;2023-04-06T00:33:25;22.65;;;13.60;;
2538;SDS011;1280;49.760;9.664;2023-04-06T00:35:56;23.90;;;13.57;;
2538;SDS011;1280;49.760;9.664;2023-04-06T00:38:33;17.45;;;10.93;;
2538;SDS011;1280;49.760;9.664;2023-04-06T00:41:04;25.65;;;12.73;;
2538;SDS011;1280;49.760;9.664;2023-04-06T00:43:48;20.50;;;13.23;;
2538;SDS011;1280;49.760;9.664;2023-04-06T00:46:27;18.70;;;12.20;;
2538;SDS011;1280;49.760;9.664;2023-04-06T00:49:00;24.13;;;13.20;;
2538;SDS011;1280;49.760;9.664;2023-04-06T00:51:38;22.58;;;12.70;;
2538;SDS011;1280;49.760;9.664;2023-04-06T00:54:20;20.73;;;12.25;;
2538;SDS011;1280;49.760;9.664;2023-04-06T00:56:54;17.40;;;12.27;;
2538;SDS011;1280;49.760;9.664;2023-04-06T00:59:34;18.52;;;11.90;;
2538;SDS011;1280;49.760;9.664;2023-04-06T01:02:07;23.88;;;13.88;;
2538;SDS011;1280;49.760;9.664;2023-04-06T01:04:52;24.90;;;13.60;;
2538;SDS011;1280;49.760;9.664;2023-04-06T01:07:36;20.70;;;13.43;;
2538;SDS011;1280;49.760;9.664;2023-04-06T01:10:28;18.40;;;11.70;;
2538;SDS011;1280;49.760;9.664;2023-04-06T01:13:07;20.58;;;11.98;;
2538;SDS011;1280;49.760;9.664;2023-04-06T01:15:55;16.85;;;11.80;;
2538;SDS011;1280;49.760;9.664;2023-04-06T01:18:46;17.45;;;12.00;;
2538;SDS011;1280;49.760;9.664;2023-04-06T01:21:30;16.35;;;11.38;;
2538;SDS011;1280;49.760;9.664;2023-04-06T01:24:30;17.08;;;11.57;;
2538;SDS011;1280;49.760;9.664;2023-04-06T01:27:17;20.15;;;13.00;;
2538;SDS011;1280;49.760;9.664;2023-04-06T01:29:56;24.70;;;12.60;;
2538;SDS011;1280;49.760;9.664;2023-04-06T01:32:52;22.17;;;12.43;;
2538;SDS011;1280;49.760;9.664;2023-04-06T01:35:41;24.55;;;13.68;;
2538;SDS011;1280;49.760;9.664;2023-04-06T01:38:36;18.50;;;11.27;;
2538;SDS011;1280;49.760;9.664;2023-04-06T01:41:15;26.58;;;15.35;;
2538;SDS011;1280;49.760;9.664;2023-04-06T01:43:51;27.25;;;15.88;;
2538;SDS011;1280;49.760;9.664;2023-04-06T01:46:27;20.60;;;12.57;;
2538;SDS011;1280;49.760;9.664;2023-04-06T01:49:04;18.77;;;11.60;;
2538;SDS011;1280;49.760;9.664;2023-04-06T01:51:48;16.67;;;11.57;;
2538;SDS011;1280;49.760;9.664;2023-04-06T01:54:24;30.50;;;16.58;;
2538;SDS011;1280;49.760;9.664;2023-04-06T01:57:17;21.40;;;13.20;;
2538;SDS011;1280;49.760;9.664;2023-04-06T01:59:57;20.35;;;11.63;;
2538;SDS011;1280;49.760;9.664;2023-04-06T02:02:50;18.50;;;11.82;;
2538;SDS011;1280;49.760;9.664;2023-04-06T02:05:28;20.45;;;12.73;;
2538;SDS011;1280;49.760;9.664;2023-04-06T02:07:57;21.95;;;12.60;;
2538;SDS011;1280;49.760;9.664;2023-04-06T02:10:35;21.58;;;11.75;;
2538;SDS011;1280;49.760;9.664;2023-04-06T02:13:27;16.65;;;11.45;;
2538;SDS011;1280;49.760;9.664;2023-04-06T02:16:05;18.15;;;11.95;;
2538;SDS011;1280;49.760;9.664;2023-04-06T02:18:35;15.55;;;11.13;;
2538;SDS011;1280;49.760;9.664;2023-04-06T02:21:16;19.20;;;12.52;;
2538;SDS011;1280;49.760;9.664;2023-04-06T02:23:46;18.25;;;11.70;;
2538;SDS011;1280;49.760;9.664;2023-04-06T02:26:18;18.60;;;12.40;;
2538;SDS011;1280;49.760;9.664;2023-04-06T02:28:54;16.60;;;11.77;;
2538;SDS011;1280;49.760;9.664;2023-04-06T02:31:28;17.73;;;11.55;;
2538;SDS011;1280;49.760;9.664;2023-04-06T02:34:04;20.40;;;13.40;;
2538;SDS011;1280;49.760;9.664;2023-04-06T02:36:37;21.02;;;12.10;;
2538;SDS011;1280;49.760;9.664;2023-04-06T02:39:08;17.90;;;12.07;;
2538;SDS011;1280;49.760;9.664;2023-04-06T02:41:44;21.45;;;13.82;;
2538;SDS011;1280;49.760;9.664;2023-04-06T02:44:27;19.80;;;12.85;;
2538;SDS011;1280;49.760;9.664;2023-04-06T02:47:02;19.60;;;11.77;;
2538;SDS011;1280;49.760;9.664;2023-04-06T02:49:39;21.15;;;12.93;;
2538;SDS011;1280;49.760;9.664;2023-04-06T02:52:15;18.30;;;11.93;;
2538;SDS011;1280;49.760;9.664;2023-04-06T02:54:47;19.50;;;11.25;;
2538;SDS011;1280;49.760;9.664;2023-04-06T02:57:31;19.27;;;12.10;;
2538;SDS011;1280;49.760;9.664;2023-04-06T03:00:08;19.40;;;12.30;;
2538;SDS011;1280;49.760;9.664;2023-04-06T03:02:39;19.35;;;12.45;;
2538;SDS011;1280;49.760;9.664;2023-04-06T03:05:17;19.70;;;12.80;;
2538;SDS011;1280;49.760;9.664;2023-04-06T03:07:50;18.50;;;11.00;;
2538;SDS011;1280;49.760;9.664;2023-04-06T03:10:34;19.95;;;11.55;;
2538;SDS011;1280;49.760;9.664;2023-04-06T03:13:05;19.05;;;11.80;;
2538;SDS011;1280;49.760;9.664;2023-04-06T03:15:57;17.75;;;12.63;;
2538;SDS011;1280;49.760;9.664;2023-04-06T03:18:32;20.83;;;12.68;;
2538;SDS011;1280;49.760;9.664;2023-04-06T03:21:16;22.58;;;13.98;;
2538;SDS011;1280;49.760;9.664;2023-04-06T03:23:50;19.75;;;13.05;;
2538;SDS011;1280;49.760;9.664;2023-04-06T03:26:25;21.10;;;12.70;;
2538;SDS011;1280;49.760;9.664;2023-04-06T03:29:02;20.35;;;12.88;;
2538;SDS011;1280;49.760;9.664;2023-04-06T03:31:41;20.60;;;12.32;;
2538;SDS011;1280;49.760;9.664;2023-04-06T03:34:46;20.27;;;11.68;;
2538;SDS011;1280;49.760;9.664;2023-04-06T03:37:17;17.10;;;11.07;;
2538;SDS011;1280;49.760;9.664;2023-04-06T03:40:00;17.33;;;12.10;;
2538;SDS011;1280;49.760;9.664;2023-04-06T03:42:34;19.27;;;12.45;;
2538;SDS011;1280;49.760;9.664;2023-04-06T03:45:14;21.45;;;13.05;;
2538;SDS011;1280;49.760;9.664;2023-04-06T03:47:54;20.42;;;13.07;;
2538;SDS011;1280;49.760;9.664;2023-04-06T03:50:33;20.33;;;12.30;;
2538;SDS011;1280;49.760;9.664;2023-04-06T03:53:05;20.15;;;12.43;;
2538;SDS011;1280;49.760;9.664;2023-04-06T03:55:35;17.65;;;12.02;;
2538;SDS011;1280;49.760;9.664;2023-04-06T03:58:06;19.77;;;11.85;;
2538;SDS011;1280;49.760;9.664;2023-04-06T04:00:45;22.20;;;14.88;;
2538;SDS011;1280;49.760;9.664;2023-04-06T04:03:28;20.80;;;13.85;;
2538;SDS011;1280;49.760;9.664;2023-04-06T04:06:02;23.73;;;11.75;;
2538;SDS011;1280;49.760;9.664;2023-04-06T04:08:42;27.42;;;14.23;;
2538;SDS011;1280;49.760;9.664;2023-04-06T04:11:14;22.63;;;13.48;;
2538;SDS011;1280;49.760;9.664;2023-04-06T04:13:51;24.08;;;13.88;;
2538;SDS011;1280;49.760;9.664;2023-04-06T04:16:31;23.75;;;14.40;;
2538;SDS011;1280;49.760;9.664;2023-04-06T04:19:05;20.90;;;13.73;;
2538;SDS011;1280;49.760;9.664;2023-04-06T04:21:44;20.88;;;11.98;;
2538;SDS011;1280;49.760;9.664;2023-04-06T04:24:19;29.17;;;16.02;;
2538;SDS011;1280;49.760;9.664;2023-04-06T04:26:58;21.83;;;14.63;;
2538;SDS011;1280;49.760;9.664;2023-04-06T04:29:37;24.90;;;14.43;;
2538;SDS011;1280;49.760;9.664;2023-04-06T04:32:12;26.02;;;16.08;;
2538;SDS011;1280;49.760;9.664;2023-04-06T04:34:47;29.08;;;16.27;;
2538;SDS011;1280;49.760;9.664;2023-04-06T04:37:35;26.45;;;15.75;;
2538;SDS011;1280;49.760;9.664;2023-04-06T04:40:16;24.17;;;15.32;;
2538;SDS011;1280;49.760;9.664;2023-04-06T04:43:03;26.15;;;15.60;;
2538;SDS011;1280;49.760;9.664;2023-04-06T04:45:40;24.25;;;13.63;;
2538;SDS011;1280;49.760;9.664;2023-04-06T04:48:34;22.50;;;13.32;;
2538;SDS011;1280;49.760;9.664;2023-04-06T04:51:15;23.52;;;14.52;;
2538;SDS011;1280;49.760;9.664;2023-04-06T04:54:06;26.38;;;14.63;;
2538;SDS011;1280;49.760;9.664;2023-04-06T04:56:35;24.02;;;13.73;;
2538;SDS011;1280;49.760;9.664;2023-04-06T04:59:30;18.10;;;12.25;;
2538;SDS011;1280;49.760;9.664;2023-04-06T05:02:16;19.05;;;12.25;;
2538;SDS011;1280;49.760;9.664;2023-04-06T05:05:16;25.17;;;16.02;;
2538;SDS011;1280;49.760;9.664;2023-04-06T05:07:48;25.67;;;15.15;;
2538;SDS011;1280;49.760;9.664;2023-04-06T05:10:54;21.30;;;14.43;;
2538;SDS011;1280;49.760;9.664;2023-04-06T05:13:46;23.17;;;13.80;;
2538;SDS011;1280;49.760;9.664;2023-04-06T05:16:42;23.45;;;14.27;;
2538;SDS011;1280;49.760;9.664;2023-04-06T05:19:34;20.38;;;13.70;;
2538;SDS011;1280;49.760;9.664;2023-04-06T05:22:08;21.38;;;13.30;;
2538;SDS011;1280;49.760;9.664;2023-04-06T05:24:53;18.15;;;12.13;;
2538;SDS011;1280;49.760;9.664;2023-04-06T05:27:27;19.15;;;12.90;;
2538;SDS011;1280;49.760;9.664;2023-04-06T05:30:27;22.67;;;13.15;;
2538;SDS011;1280;49.760;9.664;2023-04-06T05:33:02;20.10;;;13.13;;
2538;SDS011;1280;49.760;9.664;2023-04-06T05:35:56;25.67;;;12.73;;
2538;SDS011;1280;49.760;9.664;2023-04-06T05:38:40;22.80;;;13.95;;
2538;SDS011;1280;49.760;9.664;2023-04-06T05:41:39;22.30;;;13.95;;
2538;SDS011;1280;49.760;9.664;2023-04-06T05:44:32;25.10;;;14.23;;
2538;SDS011;1280;49.760;9.664;2023-04-06T05:47:26;20.80;;;13.85;;
2538;SDS011;1280;49.760;9.664;2023-04-06T05:50:17;24.77;;;14.05;;
2538;SDS011;1280;49.760;9.664;2023-04-06T05:53:14;29.80;;;16.80;;
2538;SDS011;1280;49.760;9.664;2023-04-06T05:56:09;48.85;;;24.65;;
2538;SDS011;1280;49.760;9.664;2023-04-06T05:59:04;33.42;;;18.80;;
2538;SDS011;1280;49.760;9.664;2023-04-06T06:01:35;51.22;;;26.92;;
2538;SDS011;1280;49.760;9.664;2023-04-06T06:04:10;46.17;;;26.45;;
2538;SDS011;1280;49.760;9.664;2023-04-06T06:06:58;47.35;;;27.08;;
2538;SDS011;1280;49.760;9.664;2023-04-06T06:10:10;67.68;;;39.63;;
2538;SDS011;1280;49.760;9.664;2023-04-06T06:12:57;59.33;;;33.75;;
2538;SDS011;1280;49.760;9.664;2023-04-06T06:15:34;51.15;;;30.33;;
2538;SDS011;1280;49.760;9.664;2023-04-06T06:18:21;51.40;;;27.77;;
2538;SDS011;1280;49.760;9.664;2023-04-06T06:20:53;38.78;;;24.92;;
2538;SDS011;1280;49.760;9.664;2023-04-06T06:23:32;44.22;;;25.73;;
2538;SDS011;1280;49.760;9.664;2023-04-06T06:26:04;50.00;;;25.83;;
2538;SDS011;1280;49.760;9.664;2023-04-06T06:28:35;39.30;;;20.98;;
2538;SDS011;1280;49.760;9.664;2023-04-06T06:31:17;27.80;;;17.52;;
2538;SDS011;1280;49.760;9.664;2023-04-06T06:33:50;29.15;;;16.85;;
2538;SDS011;1280;49.760;9.664;2023-04-06T06:36:32;26.23;;;16.45;;
2538;SDS011;1280;49.760;9.664;2023-04-06T06:39:09;26.05;;;16.80;;
2538;SDS011;1280;49.760;9.664;2023-04-06T06:41:43;26.17;;;15.75;;
2538;SDS011;1280;49.760;9.664;2023-04-06T06:44:24;25.95;;;14.93;;
2538;SDS011;1280;49.760;9.664;2023-04-06T06:47:12;26.50;;;15.80;;
2538;SDS011;1280;49.760;9.664;2023-04-06T06:49:43;22.58;;;14.90;;
2538;SDS011;1280;49.760;9.664;2023-04-06T06:52:20;24.33;;;16.15;;
2538;SDS011;1280;49.760;9.664;2023-04-06T06:55:01;25.45;;;15.85;;
2538;SDS011;1280;49.760;9.664;2023-04-06T06:57:41;22.58;;;15.50;;
2538;SDS011;1280;49.760;9.664;2023-04-06T07:00:23;23.08;;;14.75;;
2538;SDS011;1280;49.760;9.664;2023-04-06T07:03:18;23.92;;;15.50;;
2538;SDS011;1280;49.760;9.664;2023-04-06T07:05:54;25.77;;;14.60;;
2538;SDS011;1280;49.760;9.664;2023-04-06T07:08:27;20.95;;;14.40;;
2538;SDS011;1280;49.760;9.664;2023-04-06T07:10:57;22.25;;;13.88;;
2538;SDS011;1280;49.760;9.664;2023-04-06T07:13:39;23.23;;;14.35;;
2538;SDS011;1280;49.760;9.664;2023-04-06T07:16:19;24.02;;;15.25;;
2538;SDS011;1280;49.760;9.664;2023-04-06T07:19:02;23.95;;;14.27;;
2538;SDS011;1280;49.760;9.664;2023-04-06T07:21:35;20.90;;;14.38;;
2538;SDS011;1280;49.760;9.664;2023-04-06T07:24:10;22.65;;;14.07;;
2538;SDS011;1280;49.760;9.664;2023-04-06T07:26:41;21.52;;;15.00;;
2538;SDS011;1280;49.760;9.664;2023-04-06T07:29:16;21.65;;;15.15;;
2538;SDS011;1280;49.760;9.664;2023-04-06T07:31:53;28.08;;;16.65;;
2538;SDS011;1280;49.760;9.664;2023-04-06T07:34:48;23.17;;;14.50;;
2538;SDS011;1280;49.760;9.664;2023-04-06T07:37:25;21.00;;;15.10;;
2538;SDS011;1280;49.760;9.664;2023-04-06T07:39:57;21.98;;;15.43;;
2538;SDS011;1280;49.760;9.664;2023-04-06T07:42:33;26.08;;;14.65;;
2538;SDS011;1280;49.760;9.664;2023-04-06T07:45:12;22.70;;;15.23;;
2538;SDS011;1280;49.760;9.664;2023-04-06T07:47:50;23.20;;;15.93;;
2538;SDS011;1280;49.760;9.664;2023-04-06T07:50:39;21.40;;;15.38;;
2538;SDS011;1280;49.760;9.664;2023-04-06T07:53:10;24.52;;;15.98;;
2538;SDS011;1280;49.760;9.664;2023-04-06T07:55:45;23.10;;;15.95;;
2538;SDS011;1280;49.760;9.664;2023-04-06T07:58:15;23.52;;;15.70;;
2538;SDS011;1280;49.760;9.664;2023-04-06T08:00:54;21.02;;;15.15;;
2538;SDS011;1280;49.760;9.664;2023-04-06T08:03:25;23.63;;;16.85;;
2538;SDS011;1280;49.760;9.664;2023-04-06T08:06:01;25.25;;;15.55;;
2538;SDS011;1280;49.760;9.664;2023-04-06T08:08:38;22.95;;;15.20;;
2538;SDS011;1280;49.760;9.664;2023-04-06T08:11:11;22.02;;;14.60;;
2538;SDS011;1280;49.760;9.664;2023-04-06T08:13:43;29.38;;;17.85;;
2538;SDS011;1280;49.760;9.664;2023-04-06T08:16:20;27.02;;;16.70;;
2538;SDS011;1280;49.760;9.664;2023-04-06T08:18:59;27.42;;;17.30;;
2538;SDS011;1280;49.760;9.664;2023-04-06T08:21:33;33.03;;;17.83;;
2538;SDS011;1280;49.760;9.664;2023-04-06T08:24:09;24.27;;;16.25;;
2538;SDS011;1280;49.760;9.664;2023-04-06T08:26:48;21.83;;;15.93;;
2538;SDS011;1280;49.760;9.664;2023-04-06T08:29:28;23.35;;;15.60;;
2538;SDS011;1280;49.760;9.664;2023-04-06T08:32:09;25.75;;;16.02;;
2538;SDS011;1280;49.760;9.664;2023-04-06T08:34:40;27.83;;;17.10;;
2538;SDS011;1280;49.760;9.664;2023-04-06T08:37:17;22.55;;;15.77;;
2538;SDS011;1280;49.760;9.664;2023-04-06T08:39:45;28.00;;;16.50;;
2538;SDS011;1280;49.760;9.664;2023-04-06T08:42:19;26.98;;;17.85;;
2538;SDS011;1280;49.760;9.664;2023-04-06T08:44:52;23.55;;;16.38;;
2538;SDS011;1280;49.760;9.664;2023-04-06T08:47:28;22.35;;;15.18;;
2538;SDS011;1280;49.760;9.664;2023-04-06T08:50:04;24.15;;;16.30;;
2538;SDS011;1280;49.760;9.664;2023-04-06T08:52:44;21.27;;;14.60;;
2538;SDS011;1280;49.760;9.664;2023-04-06T08:55:20;19.67;;;14.02;;
2538;SDS011;1280;49.760;9.664;2023-04-06T08:57:53;22.77;;;15.30;;
2538;SDS011;1280;49.760;9.664;2023-04-06T09:00:29;22.75;;;13.85;;
2538;SDS011;1280;49.760;9.664;2023-04-06T09:03:08;18.90;;;13.95;;
2538;SDS011;1280;49.760;9.664;2023-04-06T09:05:46;21.95;;;15.13;;
2538;SDS011;1280;49.760;9.664;2023-04-06T09:08:23;21.42;;;14.10;;
2538;SDS011;1280;49.760;9.664;2023-04-06T09:10:55;20.38;;;13.88;;
2538;SDS011;1280;49.760;9.664;2023-04-06T09:13:31;36.67;;;19.35;;
2538;SDS011;1280;49.760;9.664;2023-04-06T09:16:17;64.78;;;32.90;;
2538;SDS011;1280;49.760;9.664;2023-04-06T09:18:50;37.00;;;19.43;;
2538;SDS011;1280;49.760;9.664;2023-04-06T09:21:31;65.95;;;38.13;;
2538;SDS011;1280;49.760;9.664;2023-04-06T09:24:07;35.97;;;21.48;;
2538;SDS011;1280;49.760;9.664;2023-04-06T09:26:46;40.63;;;24.00;;
2538;SDS011;1280;49.760;9.664;2023-04-06T09:29:22;30.97;;;18.67;;
2538;SDS011;1280;49.760;9.664;2023-04-06T09:32:01;23.43;;;14.47;;
2538;SDS011;1280;49.760;9.664;2023-04-06T09:34:33;21.80;;;13.70;;
2538;SDS011;1280;49.760;9.664;2023-04-06T09:37:12;20.60;;;13.97;;
2538;SDS011;1280;49.760;9.664;2023-04-06T09:39:49;22.23;;;13.80;;
2538;SDS011;1280;49.760;9.664;2023-04-06T09:42:35;25.90;;;17.30;;
2538;SDS011;1280;49.760;9.664;2023-04-06T09:45:04;22.03;;;14.83;;
2538;SDS011;1280;49.760;9.664;2023-04-06T09:47:34;19.33;;;12.10;;
2538;SDS011;1280;49.760;9.664;2023-04-06T09:50:09;17.27;;;12.00;;
2538;SDS011;1280;49.760;9.664;2023-04-06T09:52:46;16.33;;;11.80;;
2538;SDS011;1280;49.760;9.664;2023-04-06T09:55:27;16.67;;;10.50;;
2538;SDS011;1280;49.760;9.664;2023-04-06T09:58:15;17.63;;;10.77;;
2538;SDS011;1280;49.760;9.664;2023-04-06T10:00:54;21.33;;;12.30;;
2538;SDS011;1280;49.760;9.664;2023-04-06T10:03:34;18.27;;;10.63;;
2538;SDS011;1280;49.760;9.664;2023-04-06T10:06:13;17.80;;;10.27;;
2538;SDS011;1280;49.760;9.664;2023-04-06T10:08:57;18.73;;;9.47;;
2538;SDS011;1280;49.760;9.664;2023-04-06T10:11:37;14.73;;;9.70;;
2538;SDS011;1280;49.760;9.664;2023-04-06T10:14:12;14.53;;;10.50;;
2538;SDS011;1280;49.760;9.664;2023-04-06T10:16:52;24.47;;;13.90;;
2538;SDS011;1280;49.760;9.664;2023-04-06T10:19:42;19.00;;;10.80;;
2538;SDS011;1280;49.760;9.664;2023-04-06T10:22:40;16.57;;;9.97;;
2538;SDS011;1280;49.760;9.664;2023-04-06T10:25:26;15.10;;;9.50;;
2538;SDS011;1280;49.760;9.664;2023-04-06T10:28:09;15.07;;;9.90;;
2538;SDS011;1280;49.760;9.664;2023-04-06T10:30:46;15.60;;;10.03;;
2538;SDS011;1280;49.760;9.664;2023-04-06T10:33:19;18.60;;;11.10;;
2538;SDS011;1280;49.760;9.664;2023-04-06T10:35:52;17.80;;;10.53;;
2538;SDS011;1280;49.760;9.664;2023-04-06T10:38:39;16.47;;;10.20;;
2538;SDS011;1280;49.760;9.664;2023-04-06T10:41:11;15.93;;;9.50;;
2538;SDS011;1280;49.760;9.664;2023-04-06T10:44:02;19.40;;;10.80;;
2538;SDS011;1280;49.760;9.664;2023-04-06T10:46:38;18.60;;;10.97;;
2538;SDS011;1280;49.760;9.664;2023-04-06T10:49:10;17.87;;;10.97;;
2538;SDS011;1280;49.760;9.664;2023-04-06T10:51:45;17.20;;;11.33;;
2538;SDS011;1280;49.760;9.664;2023-04-06T10:54:24;20.47;;;11.33;;
2538;SDS011;1280;49.760;9.664;2023-04-06T10:57:06;18.30;;;11.50;;
2538;SDS011;1280;49.760;9.664;2023-04-06T10:59:42;21.90;;;11.77;;
2538;SDS011;1280;49.760;9.664;2023-04-06T11:02:20;21.10;;;11.93;;
2538;SDS011;1280;49.760;9.664;2023-04-06T11:04:55;18.50;;;12.30;;
2538;SDS011;1280;49.760;9.664;2023-04-06T11:07:27;22.37;;;12.30;;
2538;SDS011;1280;49.760;9.664;2023-04-06T11:10:08;18.40;;;11.90;;
2538;SDS011;1280;49.760;9.664;2023-04-06T11:12:44;18.27;;;11.70;;
2538;SDS011;1280;49.760;9.664;2023-04-06T11:15:33;16.63;;;11.13;;
2538;SDS011;1280;49.760;9.664;2023-04-06T11:18:07;17.90;;;11.33;;
2538;SDS011;1280;49.760;9.664;2023-04-06T11:20:40;18.80;;;11.53;;
2538;SDS011;1280;49.760;9.664;2023-04-06T11:23:24;20.67;;;12.80;;
2538;SDS011;1280;49.760;9.664;2023-04-06T11:26:03;20.10;;;12.43;;
2538;SDS011;1280;49.760;9.664;2023-04-06T11:28:44;17.60;;;11.97;;
2538;SDS011;1280;49.760;9.664;2023-04-06T11:31:15;18.97;;;12.20;;
2538;SDS011;1280;49.760;9.664;2023-04-06T11:33:55;18.77;;;12.00;;
2538;SDS011;1280;49.760;9.664;2023-04-06T11:36:27;17.37;;;11.10;;
2538;SDS011;1280;49.760;9.664;2023-04-06T11:39:07;19.23;;;12.80;;
2538;SDS011;1280;49.760;9.664;2023-04-06T11:41:47;22.27;;;12.80;;
2538;SDS011;1280;49.760;9.664;2023-04-06T11:44:31;17.00;;;11.60;;
2538;SDS011;1280;49.760;9.664;2023-04-06T11:47:13;19.50;;;11.80;;
2538;SDS011;1280;49.760;9.664;2023-04-06T11:49:49;15.47;;;10.80;;
2538;SDS011;1280;49.760;9.664;2023-04-06T11:52:21;20.23;;;12.43;;
2538;SDS011;1280;49.760;9.664;2023-04-06T11:54:55;18.67;;;11.87;;
2538;SDS011;1280;49.760;9.664;2023-04-06T11:57:39;17.17;;;10.87;;
2538;SDS011;1280;49.760;9.664;2023-04-06T12:00:10;13.70;;;9.40;;
2538;SDS011;1280;49.760;9.664;2023-04-06T12:02:50;18.93;;;11.57;;
2538;SDS011;1280;49.760;9.664;2023-04-06T12:05:26;15.70;;;10.97;;
2538;SDS011;1280;49.760;9.664;2023-04-06T12:08:07;17.20;;;10.87;;
2538;SDS011;1280;49.760;9.664;2023-04-06T12:10:46;16.07;;;11.03;;
2538;SDS011;1280;49.760;9.664;2023-04-06T12:13:19;19.20;;;11.13;;
2538;SDS011;1280;49.760;9.664;2023-04-06T12:15:57;15.10;;;10.83;;
2538;SDS011;1280;49.760;9.664;2023-04-06T12:18:35;18.07;;;10.27;;
2538;SDS011;1280;49.760;9.664;2023-04-06T12:21:08;18.00;;;10.77;;
2538;SDS011;1280;49.760;9.664;2023-04-06T12:23:45;17.27;;;10.40;;
2538;SDS011;1280;49.760;9.664;2023-04-06T12:26:19;15.67;;;11.47;;
2538;SDS011;1280;49.760;9.664;2023-04-06T12:28:51;16.37;;;10.60;;
2538;SDS011;1280;49.760;9.664;2023-04-06T12:31:24;15.57;;;10.00;;
2538;SDS011;1280;49.760;9.664;2023-04-06T12:34:03;22.33;;;11.80;;
2538;SDS011;1280;49.760;9.664;2023-04-06T12:36:36;15.47;;;10.33;;
2538;SDS011;1280;49.760;9.664;2023-04-06T12:39:09;16.67;;;11.03;;
2538;SDS011;1280;49.760;9.664;2023-04-06T12:41:43;13.60;;;10.17;;
2538;SDS011;1280;49.760;9.664;2023-04-06T12:44:22;14.77;;;9.47;;
2538;SDS011;1280;49.760;9.664;2023-04-06T12:47:01;16.20;;;10.00;;
2538;SDS011;1280;49.760;9.664;2023-04-06T12:49:39;14.73;;;9.77;;
2538;SDS011;1280;49.760;9.664;2023-04-06T12:52:15;17.23;;;10.63;;
2538;SDS011;1280;49.760;9.664;2023-04-06T12:54:45;14.10;;;9.80;;
2538;SDS011;1280;49.760;9.664;2023-04-06T12:57:19;15.90;;;10.90;;
2538;SDS011;1280;49.760;9.664;2023-04-06T12:59:55;15.73;;;9.60;;
2538;SDS011;1280;49.760;9.664;2023-04-06T13:02:39;17.70;;;10.73;;
2538;SDS011;1280;49.760;9.664;2023-04-06T13:05:21;14.47;;;9.43;;
2538;SDS011;1280;49.760;9.664;2023-04-06T13:08:01;20.23;;;10.77;;
2538;SDS011;1280;49.760;9.664;2023-04-06T13:10:33;15.93;;;10.33;;
2538;SDS011;1280;49.760;9.664;2023-04-06T13:13:22;14.60;;;10.23;;
2538;SDS011;1280;49.760;9.664;2023-04-06T13:16:00;16.17;;;10.47;;
2538;SDS011;1280;49.760;9.664;2023-04-06T13:18:34;15.97;;;11.07;;
2538;SDS011;1280;49.760;9.664;2023-04-06T13:21:14;15.00;;;9.73;;
2538;SDS011;1280;49.760;9.664;2023-04-06T13:23:47;18.93;;;9.93;;
2538;SDS011;1280;49.760;9.664;2023-04-06T13:26:21;16.37;;;10.20;;
2538;SDS011;1280;49.760;9.664;2023-04-06T13:29:00;15.73;;;9.87;;
2538;SDS011;1280;49.760;9.664;2023-04-06T13:31:40;14.73;;;10.10;;
2538;SDS011;1280;49.760;9.664;2023-04-06T13:34:22;15.33;;;10.13;;
2538;SDS011;1280;49.760;9.664;2023-04-06T13:36:59;14.93;;;10.60;;
2538;SDS011;1280;49.760;9.664;2023-04-06T13:39:35;15.67;;;10.40;;
2538;SDS011;1280;49.760;9.664;2023-04-06T13:42:11;20.53;;;10.40;;
2538;SDS011;1280;49.760;9.664;2023-04-06T13:44:41;16.23;;;10.30;;
2538;SDS011;1280;49.760;9.664;2023-04-06T13:47:20;16.43;;;10.27;;
2538;SDS011;1280;49.760;9.664;2023-04-06T13:50:00;14.20;;;10.03;;
2538;SDS011;1280;49.760;9.664;2023-04-06T13:52:44;15.23;;;10.50;;
2538;SDS011;1280;49.760;9.664;2023-04-06T13:55:18;17.10;;;10.23;;
2538;SDS011;1280;49.760;9.664;2023-04-06T13:57:52;17.17;;;10.63;;
2538;SDS011;1280;49.760;9.664;2023-04-06T14:00:26;16.50;;;11.07;;
2538;SDS011;1280;49.760;9.664;2023-04-06T14:02:58;16.03;;;9.80;;
2538;SDS011;1280;49.760;9.664;2023-04-06T14:05:35;18.93;;;11.70;;
2538;SDS011;1280;49.760;9.664;2023-04-06T14:08:10;18.10;;;10.60;;
2538;SDS011;1280;49.760;9.664;2023-04-06T14:10:41;14.60;;;9.67;;
2538;SDS011;1280;49.760;9.664;2023-04-06T14:13:20;15.67;;;10.33;;
2538;SDS011;1280;49.760;9.664;2023-04-06T14:15:56;21.67;;;12.13;;
2538;SDS011;1280;49.760;9.664;2023-04-06T14:18:31;17.13;;;9.87;;
2538;SDS011;1280;49.760;9.664;2023-04-06T14:21:04;14.00;;;9.40;;
2538;SDS011;1280;49.760;9.664;2023-04-06T14:23:42;20.03;;;9.80;;
2538;SDS011;1280;49.760;9.664;2023-04-06T14:26:12;18.27;;;9.60;;
2538;SDS011;1280;49.760;9.664;2023-04-06T14:28:46;19.00;;;11.07;;
2538;SDS011;1280;49.760;9.664;2023-04-06T14:31:21;22.33;;;12.77;;
2538;SDS011;1280;49.760;9.664;2023-04-06T14:34:00;17.70;;;9.83;;
2538;SDS011;1280;49.760;9.664;2023-04-06T14:36:31;26.17;;;12.27;;
2538;SDS011;1280;49.760;9.664;2023-04-06T14:39:21;16.90;;;9.83;;
2538;SDS011;1280;49.760;9.664;2023-04-06T14:41:56;17.50;;;11.00;;
2538;SDS011;1280;49.760;9.664;2023-04-06T14:44:29;18.63;;;11.03;;
2538;SDS011;1280;49.760;9.664;2023-04-06T14:47:00;13.73;;;9.57;;
2538;SDS011;1280;49.760;9.664;2023-04-06T14:49:46;14.83;;;9.57;;
2538;SDS011;1280;49.760;9.664;2023-04-06T14:52:23;13.00;;;8.80;;
2538;SDS011;1280;49.760;9.664;2023-04-06T14:55:03;17.03;;;9.33;;
2538;SDS011;1280;49.760;9.664;2023-04-06T14:57:37;18.60;;;10.63;;
2538;SDS011;1280;49.760;9.664;2023-04-06T15:00:10;14.10;;;9.23;;
2538;SDS011;1280;49.760;9.664;2023-04-06T15:02:40;15.33;;;9.53;;
2538;SDS011;1280;49.760;9.664;2023-04-06T15:05:13;14.63;;;9.17;;
2538;SDS011;1280;49.760;9.664;2023-04-06T15:07:51;13.53;;;9.43;;
2538;SDS011;1280;49.760;9.664;2023-04-06T15:10:28;12.17;;;8.60;;
2538;SDS011;1280;49.760;9.664;2023-04-06T15:13:07;16.50;;;9.00;;
2538;SDS011;1280;49.760;9.664;2023-04-06T15:15:40;15.80;;;7.87;;
2538;SDS011;1280;49.760;9.664;2023-04-06T15:18:15;15.20;;;9.23;;
2538;SDS011;1280;49.760;9.664;2023-04-06T15:20:46;12.30;;;8.03;;
2538;SDS011;1280;49.760;9.664;2023-04-06T15:23:25;12.00;;;7.73;;
2538;SDS011;1280;49.760;9.664;2023-04-06T15:26:07;13.00;;;8.60;;
2538;SDS011;1280;49.760;9.664;2023-04-06T15:28:39;12.83;;;9.20;;
2538;SDS011;1280;49.760;9.664;2023-04-06T15:31:13;15.80;;;9.23;;
2538;SDS011;1280;49.760;9.664;2023-04-06T15:34:03;11.57;;;8.73;;
2538;SDS011;1280;49.760;9.664;2023-04-06T15:36:33;14.40;;;8.93;;
2538;SDS011;1280;49.760;9.664;2023-04-06T15:39:05;13.77;;;8.53;;
2538;SDS011;1280;49.760;9.664;2023-04-06T15:41:42;14.73;;;8.63;;
2538;SDS011;1280;49.760;9.664;2023-04-06T15:44:15;22.87;;;10.70;;
2538;SDS011;1280;49.760;9.664;2023-04-06T15:46:54;17.23;;;9.53;;
2538;SDS011;1280;49.760;9.664;2023-04-06T15:49:27;12.17;;;8.80;;
2538;SDS011;1280;49.760;9.664;2023-04-06T15:52:05;18.90;;;9.80;;
2538;SDS011;1280;49.760;9.664;2023-04-06T15:54:34;15.00;;;8.73;;
2538;SDS011;1280;49.760;9.664;2023-04-06T15:57:11;17.53;;;9.40;;
2538;SDS011;1280;49.760;9.664;2023-04-06T15:59:44;20.00;;;9.70;;